sensor_id;sensor_type;location;lat;lon;timestamp;temperature;humidity
51884;DHT22;37915;53.254;6.598;2022-09-17T00:00:40;11.60;99.90
51884;DHT22;37915;53.254;6.598;2022-09-17T00:03:06;11.60;99.90
51884;DHT22;37915;53.254;6.598;2022-09-17T00:05:34;11.50;99.90
51884;DHT22;37915;53.254;6.598;2022-09-17T00:08:02;11.60;99.90
51884;DHT22;37915;53.254;6.598;2022-09-17T00:10:29;11.50;99.90
51884;DHT22;37915;53.254;6.598;2022-09-17T00:12:55;12.10;99.90
51884;DHT22;37915;53.254;6.598;2022-09-17T00:15:20;11.60;99.90
51884;DHT22;37915;53.254;6.598;2022-09-17T00:17:46;11.60;99.90
51884;DHT22;37915;53.254;6.598;2022-09-17T00:20:12;11.60;99.90
51884;DHT22;37915;53.254;6.598;2022-09-17T00:22:38;11.60;99.90
51884;DHT22;37915;53.254;6.598;2022-09-17T00:25:05;11.60;99.90
51884;DHT22;37915;53.254;6.598;2022-09-17T00:27:32;11.60;99.90
51884;DHT22;37915;53.254;6.598;2022-09-17T00:29:58;11.50;99.90
51884;DHT22;37915;53.254;6.598;2022-09-17T00:32:24;11.30;99.90
51884;DHT22;37915;53.254;6.598;2022-09-17T00:34:50;11.30;99.90
51884;DHT22;37915;53.254;6.598;2022-09-17T00:37:19;11.20;99.90
51884;DHT22;37915;53.254;6.598;2022-09-17T00:39:45;11.10;99.90
51884;DHT22;37915;53.254;6.598;2022-09-17T00:42:14;11.10;99.90
51884;DHT22;37915;53.254;6.598;2022-09-17T00:44:54;11.00;99.90
51884;DHT22;37915;53.254;6.598;2022-09-17T00:50:12;10.90;99.90
51884;DHT22;37915;53.254;6.598;2022-09-17T00:52:39;10.80;99.90
51884;DHT22;37915;53.254;6.598;2022-09-17T00:55:28;10.80;99.90
51884;DHT22;37915;53.254;6.598;2022-09-17T00:57:57;10.80;99.90
51884;DHT22;37915;53.254;6.598;2022-09-17T01:00:24;10.80;99.90
51884;DHT22;37915;53.254;6.598;2022-09-17T01:02:51;10.80;99.90
51884;DHT22;37915;53.254;6.598;2022-09-17T01:05:28;10.80;99.90
51884;DHT22;37915;53.254;6.598;2022-09-17T01:11:14;10.80;99.90
51884;DHT22;37915;53.254;6.598;2022-09-17T01:16:27;10.80;99.90
51884;DHT22;37915;53.254;6.598;2022-09-17T01:19:40;10.90;99.90
51884;DHT22;37915;53.254;6.598;2022-09-17T01:22:47;10.90;99.90
51884;DHT22;37915;53.254;6.598;2022-09-17T01:25:23;10.90;99.90
51884;DHT22;37915;53.254;6.598;2022-09-17T01:33:23;11.00;99.90
51884;DHT22;37915;53.254;6.598;2022-09-17T01:41:29;11.10;99.90
51884;DHT22;37915;53.254;6.598;2022-09-17T01:44:03;11.20;99.90
51884;DHT22;37915;53.254;6.598;2022-09-17T01:46:31;11.20;99.90
51884;DHT22;37915;53.254;6.598;2022-09-17T01:49:00;11.20;99.90
51884;DHT22;37915;53.254;6.598;2022-09-17T01:51:31;11.20;99.90
51884;DHT22;37915;53.254;6.598;2022-09-17T01:54:02;11.20;99.90
51884;DHT22;37915;53.254;6.598;2022-09-17T01:56:43;11.30;99.90
51884;DHT22;37915;53.254;6.598;2022-09-17T01:59:19;11.10;99.90
51884;DHT22;37915;53.254;6.598;2022-09-17T02:01:47;11.10;99.90
51884;DHT22;37915;53.254;6.598;2022-09-17T02:04:36;11.10;99.90
51884;DHT22;37915;53.254;6.598;2022-09-17T02:07:10;11.10;99.90
51884;DHT22;37915;53.254;6.598;2022-09-17T02:09:58;11.00;99.90
51884;DHT22;37915;53.254;6.598;2022-09-17T02:12:32;11.00;99.90
51884;DHT22;37915;53.254;6.598;2022-09-17T02:15:02;11.00;99.90
51884;DHT22;37915;53.254;6.598;2022-09-17T02:17:43;11.00;99.90
51884;DHT22;37915;53.254;6.598;2022-09-17T02:20:11;10.90;99.90
51884;DHT22;37915;53.254;6.598;2022-09-17T02:22:43;10.90;99.90
51884;DHT22;37915;53.254;6.598;2022-09-17T02:28:21;10.90;99.90
51884;DHT22;37915;53.254;6.598;2022-09-17T02:30:50;11.00;99.90
51884;DHT22;37915;53.254;6.598;2022-09-17T02:33:17;11.00;99.90
51884;DHT22;37915;53.254;6.598;2022-09-17T02:35:43;11.00;99.90
51884;DHT22;37915;53.254;6.598;2022-09-17T02:38:11;11.00;99.90
51884;DHT22;37915;53.254;6.598;2022-09-17T02:40:50;11.10;99.90
51884;DHT22;37915;53.254;6.598;2022-09-17T02:49:41;11.10;99.90
51884;DHT22;37915;53.254;6.598;2022-09-17T03:00:43;11.10;99.90
51884;DHT22;37915;53.254;6.598;2022-09-17T03:03:22;11.10;99.90
51884;DHT22;37915;53.254;6.598;2022-09-17T03:05:53;11.10;99.90
51884;DHT22;37915;53.254;6.598;2022-09-17T03:08:19;11.40;99.90
51884;DHT22;37915;53.254;6.598;2022-09-17T03:10:52;11.10;99.90
51884;DHT22;37915;53.254;6.598;2022-09-17T03:13:17;11.10;99.90
51884;DHT22;37915;53.254;6.598;2022-09-17T03:15:43;11.00;99.90
51884;DHT22;37915;53.254;6.598;2022-09-17T03:18:09;11.00;99.90
51884;DHT22;37915;53.254;6.598;2022-09-17T03:20:34;11.20;99.90
51884;DHT22;37915;53.254;6.598;2022-09-17T03:23:00;10.90;99.90
51884;DHT22;37915;53.254;6.598;2022-09-17T03:25:26;10.90;99.90
51884;DHT22;37915;53.254;6.598;2022-09-17T03:27:51;10.80;99.90
51884;DHT22;37915;53.254;6.598;2022-09-17T03:30:18;10.80;99.90
51884;DHT22;37915;53.254;6.598;2022-09-17T03:32:43;10.80;99.90
51884;DHT22;37915;53.254;6.598;2022-09-17T03:35:09;10.80;99.90
51884;DHT22;37915;53.254;6.598;2022-09-17T03:37:35;10.80;99.90
51884;DHT22;37915;53.254;6.598;2022-09-17T03:40:01;10.80;99.90
51884;DHT22;37915;53.254;6.598;2022-09-17T03:42:27;10.80;99.90
51884;DHT22;37915;53.254;6.598;2022-09-17T03:44:52;10.80;99.90
51884;DHT22;37915;53.254;6.598;2022-09-17T03:47:18;10.90;99.90
51884;DHT22;37915;53.254;6.598;2022-09-17T03:49:43;10.90;99.90
51884;DHT22;37915;53.254;6.598;2022-09-17T03:52:09;10.90;99.90
51884;DHT22;37915;53.254;6.598;2022-09-17T03:54:35;10.80;99.90
51884;DHT22;37915;53.254;6.598;2022-09-17T03:57:00;10.80;99.90
51884;DHT22;37915;53.254;6.598;2022-09-17T03:59:26;10.80;99.90
51884;DHT22;37915;53.254;6.598;2022-09-17T04:01:52;10.70;99.90
51884;DHT22;37915;53.254;6.598;2022-09-17T04:04:17;10.70;99.90
51884;DHT22;37915;53.254;6.598;2022-09-17T04:06:43;10.70;99.90
51884;DHT22;37915;53.254;6.598;2022-09-17T04:09:09;10.70;99.90
51884;DHT22;37915;53.254;6.598;2022-09-17T04:11:34;10.70;99.90
51884;DHT22;37915;53.254;6.598;2022-09-17T04:14:00;10.80;99.90
51884;DHT22;37915;53.254;6.598;2022-09-17T04:16:26;10.70;99.90
51884;DHT22;37915;53.254;6.598;2022-09-17T04:18:51;10.70;99.90
51884;DHT22;37915;53.254;6.598;2022-09-17T04:21:17;10.70;99.90
51884;DHT22;37915;53.254;6.598;2022-09-17T04:23:42;10.70;99.90
51884;DHT22;37915;53.254;6.598;2022-09-17T04:26:08;10.70;99.90
51884;DHT22;37915;53.254;6.598;2022-09-17T04:28:34;10.70;99.90
51884;DHT22;37915;53.254;6.598;2022-09-17T04:30:59;10.70;99.90
51884;DHT22;37915;53.254;6.598;2022-09-17T04:33:25;10.70;99.90
51884;DHT22;37915;53.254;6.598;2022-09-17T04:35:51;10.70;99.90
51884;DHT22;37915;53.254;6.598;2022-09-17T04:38:16;10.70;99.90
51884;DHT22;37915;53.254;6.598;2022-09-17T04:40:45;10.70;99.90
51884;DHT22;37915;53.254;6.598;2022-09-17T04:43:11;10.70;99.90
51884;DHT22;37915;53.254;6.598;2022-09-17T04:45:36;11.30;99.90
51884;DHT22;37915;53.254;6.598;2022-09-17T04:48:02;10.70;99.90
51884;DHT22;37915;53.254;6.598;2022-09-17T04:50:28;10.80;99.90
51884;DHT22;37915;53.254;6.598;2022-09-17T04:52:54;10.80;99.90
51884;DHT22;37915;53.254;6.598;2022-09-17T04:55:19;10.80;99.90
51884;DHT22;37915;53.254;6.598;2022-09-17T04:57:47;10.80;99.90
51884;DHT22;37915;53.254;6.598;2022-09-17T05:00:13;10.70;99.90
51884;DHT22;37915;53.254;6.598;2022-09-17T05:02:39;10.70;99.90
51884;DHT22;37915;53.254;6.598;2022-09-17T05:05:06;11.50;99.90
51884;DHT22;37915;53.254;6.598;2022-09-17T05:07:32;10.80;99.90
51884;DHT22;37915;53.254;6.598;2022-09-17T05:09:57;10.80;99.90
51884;DHT22;37915;53.254;6.598;2022-09-17T05:12:23;10.80;99.90
51884;DHT22;37915;53.254;6.598;2022-09-17T05:14:49;10.70;99.90
51884;DHT22;37915;53.254;6.598;2022-09-17T05:17:14;10.70;99.90
51884;DHT22;37915;53.254;6.598;2022-09-17T05:19:40;10.80;99.90
51884;DHT22;37915;53.254;6.598;2022-09-17T05:22:06;10.80;99.90
51884;DHT22;37915;53.254;6.598;2022-09-17T05:24:31;10.70;99.90
51884;DHT22;37915;53.254;6.598;2022-09-17T05:26:58;10.70;99.90
51884;DHT22;37915;53.254;6.598;2022-09-17T05:29:23;10.70;99.90
51884;DHT22;37915;53.254;6.598;2022-09-17T05:31:49;10.80;99.90
51884;DHT22;37915;53.254;6.598;2022-09-17T05:34:14;10.80;99.90
51884;DHT22;37915;53.254;6.598;2022-09-17T05:36:40;10.80;99.90
51884;DHT22;37915;53.254;6.598;2022-09-17T05:39:06;10.90;99.90
51884;DHT22;37915;53.254;6.598;2022-09-17T05:41:33;10.90;99.90
51884;DHT22;37915;53.254;6.598;2022-09-17T05:43:58;11.00;99.90
51884;DHT22;37915;53.254;6.598;2022-09-17T05:46:24;11.00;99.90
51884;DHT22;37915;53.254;6.598;2022-09-17T05:48:50;11.10;99.90
51884;DHT22;37915;53.254;6.598;2022-09-17T05:51:15;11.10;99.90
51884;DHT22;37915;53.254;6.598;2022-09-17T05:53:41;11.10;99.90
51884;DHT22;37915;53.254;6.598;2022-09-17T05:56:06;11.10;99.90
51884;DHT22;37915;53.254;6.598;2022-09-17T05:58:32;11.10;99.90
51884;DHT22;37915;53.254;6.598;2022-09-17T06:01:00;11.00;99.90
51884;DHT22;37915;53.254;6.598;2022-09-17T06:03:25;11.10;99.90
51884;DHT22;37915;53.254;6.598;2022-09-17T06:05:57;11.10;99.90
51884;DHT22;37915;53.254;6.598;2022-09-17T06:08:24;11.20;99.90
51884;DHT22;37915;53.254;6.598;2022-09-17T06:10:50;11.30;99.90
51884;DHT22;37915;53.254;6.598;2022-09-17T06:13:17;11.30;99.90
51884;DHT22;37915;53.254;6.598;2022-09-17T06:15:51;11.20;99.90
51884;DHT22;37915;53.254;6.598;2022-09-17T06:18:17;11.10;99.90
51884;DHT22;37915;53.254;6.598;2022-09-17T06:21:00;11.10;99.90
51884;DHT22;37915;53.254;6.598;2022-09-17T06:23:27;10.90;99.90
51884;DHT22;37915;53.254;6.598;2022-09-17T06:25:53;10.80;99.90
51884;DHT22;37915;53.254;6.598;2022-09-17T06:28:19;10.80;99.90
51884;DHT22;37915;53.254;6.598;2022-09-17T06:30:45;10.70;99.90
51884;DHT22;37915;53.254;6.598;2022-09-17T06:33:11;10.70;99.90
51884;DHT22;37915;53.254;6.598;2022-09-17T06:35:36;10.70;99.90
51884;DHT22;37915;53.254;6.598;2022-09-17T06:38:05;10.70;99.90
51884;DHT22;37915;53.254;6.598;2022-09-17T06:40:31;10.70;99.90
51884;DHT22;37915;53.254;6.598;2022-09-17T06:42:58;10.70;99.90
51884;DHT22;37915;53.254;6.598;2022-09-17T06:45:24;10.80;99.90
51884;DHT22;37915;53.254;6.598;2022-09-17T06:47:50;10.90;99.90
51884;DHT22;37915;53.254;6.598;2022-09-17T06:50:16;11.00;99.90
51884;DHT22;37915;53.254;6.598;2022-09-17T06:52:52;11.10;99.90
51884;DHT22;37915;53.254;6.598;2022-09-17T06:55:19;11.20;99.90
51884;DHT22;37915;53.254;6.598;2022-09-17T06:57:45;11.30;99.90
51884;DHT22;37915;53.254;6.598;2022-09-17T07:00:12;11.30;99.90
51884;DHT22;37915;53.254;6.598;2022-09-17T07:02:38;11.30;99.90
51884;DHT22;37915;53.254;6.598;2022-09-17T07:05:04;11.40;99.90
51884;DHT22;37915;53.254;6.598;2022-09-17T07:07:30;11.50;99.90
51884;DHT22;37915;53.254;6.598;2022-09-17T07:09:56;11.50;99.90
51884;DHT22;37915;53.254;6.598;2022-09-17T07:12:22;11.70;99.90
51884;DHT22;37915;53.254;6.598;2022-09-17T07:14:47;11.80;99.90
51884;DHT22;37915;53.254;6.598;2022-09-17T07:17:14;11.80;99.90
51884;DHT22;37915;53.254;6.598;2022-09-17T07:19:39;11.80;99.90
51884;DHT22;37915;53.254;6.598;2022-09-17T07:22:05;11.70;99.90
51884;DHT22;37915;53.254;6.598;2022-09-17T07:24:31;11.60;99.90
51884;DHT22;37915;53.254;6.598;2022-09-17T07:26:57;11.60;99.90
51884;DHT22;37915;53.254;6.598;2022-09-17T07:29:23;11.50;99.90
51884;DHT22;37915;53.254;6.598;2022-09-17T07:31:54;11.50;99.90
51884;DHT22;37915;53.254;6.598;2022-09-17T07:34:20;11.50;99.90
51884;DHT22;37915;53.254;6.598;2022-09-17T07:36:46;11.60;99.90
51884;DHT22;37915;53.254;6.598;2022-09-17T07:39:12;11.60;99.90
51884;DHT22;37915;53.254;6.598;2022-09-17T07:41:39;11.60;99.90
51884;DHT22;37915;53.254;6.598;2022-09-17T07:44:05;11.70;99.90
51884;DHT22;37915;53.254;6.598;2022-09-17T07:46:34;11.80;99.90
51884;DHT22;37915;53.254;6.598;2022-09-17T07:49:00;11.90;99.90
51884;DHT22;37915;53.254;6.598;2022-09-17T07:51:26;12.10;99.90
51884;DHT22;37915;53.254;6.598;2022-09-17T07:53:57;12.20;99.90
51884;DHT22;37915;53.254;6.598;2022-09-17T07:56:25;12.20;99.90
51884;DHT22;37915;53.254;6.598;2022-09-17T07:58:51;12.10;99.90
51884;DHT22;37915;53.254;6.598;2022-09-17T08:01:17;12.00;99.90
51884;DHT22;37915;53.254;6.598;2022-09-17T08:03:50;11.90;99.90
51884;DHT22;37915;53.254;6.598;2022-09-17T08:06:18;11.90;99.90
51884;DHT22;37915;53.254;6.598;2022-09-17T08:08:44;11.80;99.90
51884;DHT22;37915;53.254;6.598;2022-09-17T08:11:14;11.90;99.90
51884;DHT22;37915;53.254;6.598;2022-09-17T08:13:40;11.90;99.90
51884;DHT22;37915;53.254;6.598;2022-09-17T08:16:11;12.00;99.90
51884;DHT22;37915;53.254;6.598;2022-09-17T08:18:38;12.20;99.90
51884;DHT22;37915;53.254;6.598;2022-09-17T08:21:06;12.30;99.90
51884;DHT22;37915;53.254;6.598;2022-09-17T08:23:35;12.40;99.90
51884;DHT22;37915;53.254;6.598;2022-09-17T08:26:01;12.40;99.90
51884;DHT22;37915;53.254;6.598;2022-09-17T08:28:29;12.50;99.90
51884;DHT22;37915;53.254;6.598;2022-09-17T08:31:03;12.50;99.90
51884;DHT22;37915;53.254;6.598;2022-09-17T08:33:37;12.70;99.90
51884;DHT22;37915;53.254;6.598;2022-09-17T08:36:05;12.80;99.90
51884;DHT22;37915;53.254;6.598;2022-09-17T08:38:32;12.90;99.90
51884;DHT22;37915;53.254;6.598;2022-09-17T08:46:17;13.30;99.90
51884;DHT22;37915;53.254;6.598;2022-09-17T08:49:06;13.40;99.90
51884;DHT22;37915;53.254;6.598;2022-09-17T08:54:51;13.40;99.90
51884;DHT22;37915;53.254;6.598;2022-09-17T08:57:49;13.10;99.90
51884;DHT22;37915;53.254;6.598;2022-09-17T09:00:20;12.80;99.90
51884;DHT22;37915;53.254;6.598;2022-09-17T09:05:20;12.30;99.90
51884;DHT22;37915;53.254;6.598;2022-09-17T09:08:12;12.00;99.90
51884;DHT22;37915;53.254;6.598;2022-09-17T09:10:52;11.90;99.90
51884;DHT22;37915;53.254;6.598;2022-09-17T09:13:21;11.90;99.90
51884;DHT22;37915;53.254;6.598;2022-09-17T09:16:09;11.80;99.90
51884;DHT22;37915;53.254;6.598;2022-09-17T09:18:39;11.80;99.90
51884;DHT22;37915;53.254;6.598;2022-09-17T09:21:27;11.80;99.90
51884;DHT22;37915;53.254;6.598;2022-09-17T09:24:15;11.80;99.90
51884;DHT22;37915;53.254;6.598;2022-09-17T09:26:57;11.90;99.90
51884;DHT22;37915;53.254;6.598;2022-09-17T09:29:41;12.00;99.90
51884;DHT22;37915;53.254;6.598;2022-09-17T09:32:16;12.00;99.90
51884;DHT22;37915;53.254;6.598;2022-09-17T09:34:43;11.70;99.90
51884;DHT22;37915;53.254;6.598;2022-09-17T09:37:32;11.40;99.90
51884;DHT22;37915;53.254;6.598;2022-09-17T09:42:52;11.20;99.90
51884;DHT22;37915;53.254;6.598;2022-09-17T09:45:44;11.10;99.90
51884;DHT22;37915;53.254;6.598;2022-09-17T09:48:22;11.00;99.90
51884;DHT22;37915;53.254;6.598;2022-09-17T09:56:46;11.10;99.90
51884;DHT22;37915;53.254;6.598;2022-09-17T09:59:13;11.20;99.90
51884;DHT22;37915;53.254;6.598;2022-09-17T10:01:41;11.40;99.90
51884;DHT22;37915;53.254;6.598;2022-09-17T10:04:20;11.50;99.90
51884;DHT22;37915;53.254;6.598;2022-09-17T10:06:48;11.50;99.90
51884;DHT22;37915;53.254;6.598;2022-09-17T10:09:16;11.60;99.90
51884;DHT22;37915;53.254;6.598;2022-09-17T10:12:03;11.80;99.90
51884;DHT22;37915;53.254;6.598;2022-09-17T10:14:30;12.00;99.90
51884;DHT22;37915;53.254;6.598;2022-09-17T10:17:24;12.00;99.90
51884;DHT22;37915;53.254;6.598;2022-09-17T10:22:31;12.10;99.90
51884;DHT22;37915;53.254;6.598;2022-09-17T10:24:59;12.10;99.90
51884;DHT22;37915;53.254;6.598;2022-09-17T10:27:26;12.10;99.90
51884;DHT22;37915;53.254;6.598;2022-09-17T10:30:14;12.10;99.90
51884;DHT22;37915;53.254;6.598;2022-09-17T10:32:40;12.30;99.90
51884;DHT22;37915;53.254;6.598;2022-09-17T10:35:24;12.50;99.90
51884;DHT22;37915;53.254;6.598;2022-09-17T10:37:53;12.80;99.90
51884;DHT22;37915;53.254;6.598;2022-09-17T10:42:45;13.40;99.90
51884;DHT22;37915;53.254;6.598;2022-09-17T10:45:38;13.70;99.90
51884;DHT22;37915;53.254;6.598;2022-09-17T10:48:04;13.90;99.90
51884;DHT22;37915;53.254;6.598;2022-09-17T10:50:37;14.30;99.90
51884;DHT22;37915;53.254;6.598;2022-09-17T10:53:05;14.50;99.90
51884;DHT22;37915;53.254;6.598;2022-09-17T10:58:23;14.80;99.90
51884;DHT22;37915;53.254;6.598;2022-09-17T11:01:27;14.90;99.90
51884;DHT22;37915;53.254;6.598;2022-09-17T11:07:41;14.90;99.90
51884;DHT22;37915;53.254;6.598;2022-09-17T11:12:32;14.70;99.90
51884;DHT22;37915;53.254;6.598;2022-09-17T11:20:50;14.60;99.90
51884;DHT22;37915;53.254;6.598;2022-09-17T11:26:29;14.60;99.90
51884;DHT22;37915;53.254;6.598;2022-09-17T11:34:57;14.90;99.90
51884;DHT22;37915;53.254;6.598;2022-09-17T11:37:36;14.90;99.90
51884;DHT22;37915;53.254;6.598;2022-09-17T11:42:55;15.00;99.90
51884;DHT22;37915;53.254;6.598;2022-09-17T11:45:28;14.90;99.90
51884;DHT22;37915;53.254;6.598;2022-09-17T11:50:35;14.90;99.90
51884;DHT22;37915;53.254;6.598;2022-09-17T11:53:25;14.80;99.90
51884;DHT22;37915;53.254;6.598;2022-09-17T11:55:58;14.70;99.90
51884;DHT22;37915;53.254;6.598;2022-09-17T12:01:53;14.50;99.90
51884;DHT22;37915;53.254;6.598;2022-09-17T12:07:55;14.20;99.90
51884;DHT22;37915;53.254;6.598;2022-09-17T12:16:15;14.40;99.90
51884;DHT22;37915;53.254;6.598;2022-09-17T12:24:28;14.70;99.90
51884;DHT22;37915;53.254;6.598;2022-09-17T12:30:08;14.20;99.90
51884;DHT22;37915;53.254;6.598;2022-09-17T12:47:04;14.00;99.90
51884;DHT22;37915;53.254;6.598;2022-09-17T12:49:58;14.10;99.90
51884;DHT22;37915;53.254;6.598;2022-09-17T13:01:01;14.50;99.90
51884;DHT22;37915;53.254;6.598;2022-09-17T13:06:41;14.70;99.90
51884;DHT22;37915;53.254;6.598;2022-09-17T13:20:04;14.70;99.90
51884;DHT22;37915;53.254;6.598;2022-09-17T13:22:52;14.70;99.90
51884;DHT22;37915;53.254;6.598;2022-09-17T13:25:20;14.80;99.90
51884;DHT22;37915;53.254;6.598;2022-09-17T13:27:48;14.90;99.90
51884;DHT22;37915;53.254;6.598;2022-09-17T13:30:19;15.00;99.90
51884;DHT22;37915;53.254;6.598;2022-09-17T13:32:51;15.10;99.90
51884;DHT22;37915;53.254;6.598;2022-09-17T13:42:50;15.60;99.90
51884;DHT22;37915;53.254;6.598;2022-09-17T13:45:20;15.70;99.90
51884;DHT22;37915;53.254;6.598;2022-09-17T13:47:53;15.80;99.90
51884;DHT22;37915;53.254;6.598;2022-09-17T13:50:42;15.90;99.90
51884;DHT22;37915;53.254;6.598;2022-09-17T13:55:50;16.00;99.90
51884;DHT22;37915;53.254;6.598;2022-09-17T14:19:53;15.30;99.90
51884;DHT22;37915;53.254;6.598;2022-09-17T14:22:13;15.20;99.90
51884;DHT22;37915;53.254;6.598;2022-09-17T14:30:13;14.90;99.90
51884;DHT22;37915;53.254;6.598;2022-09-17T14:33:07;14.50;99.90
51884;DHT22;37915;53.254;6.598;2022-09-17T14:40:46;14.40;99.90
51884;DHT22;37915;53.254;6.598;2022-09-17T14:43:21;14.30;99.90
51884;DHT22;37915;53.254;6.598;2022-09-17T14:45:59;14.30;99.90
51884;DHT22;37915;53.254;6.598;2022-09-17T14:48:31;14.40;99.90
51884;DHT22;37915;53.254;6.598;2022-09-17T14:53:42;14.50;99.90
51884;DHT22;37915;53.254;6.598;2022-09-17T14:56:11;14.60;99.90
51884;DHT22;37915;53.254;6.598;2022-09-17T14:58:41;14.70;99.90
51884;DHT22;37915;53.254;6.598;2022-09-17T15:01:21;14.90;99.90
51884;DHT22;37915;53.254;6.598;2022-09-17T15:03:48;14.90;99.90
51884;DHT22;37915;53.254;6.598;2022-09-17T15:06:21;14.50;99.90
51884;DHT22;37915;53.254;6.598;2022-09-17T15:08:48;14.10;99.90
51884;DHT22;37915;53.254;6.598;2022-09-17T15:11:14;13.80;99.90
51884;DHT22;37915;53.254;6.598;2022-09-17T15:13:52;13.70;99.90
51884;DHT22;37915;53.254;6.598;2022-09-17T15:16:18;13.90;99.90
51884;DHT22;37915;53.254;6.598;2022-09-17T15:18:49;14.00;99.90
51884;DHT22;37915;53.254;6.598;2022-09-17T15:23:50;14.00;99.90
51884;DHT22;37915;53.254;6.598;2022-09-17T15:26:23;13.80;99.90
51884;DHT22;37915;53.254;6.598;2022-09-17T15:28:53;13.60;99.90
51884;DHT22;37915;53.254;6.598;2022-09-17T15:31:20;13.50;99.90
51884;DHT22;37915;53.254;6.598;2022-09-17T15:33:46;13.50;99.90
51884;DHT22;37915;53.254;6.598;2022-09-17T15:38:37;13.30;99.90
51884;DHT22;37915;53.254;6.598;2022-09-17T15:46:39;13.60;99.90
51884;DHT22;37915;53.254;6.598;2022-09-17T15:49:26;13.60;99.90
51884;DHT22;37915;53.254;6.598;2022-09-17T15:51:52;13.50;99.90
51884;DHT22;37915;53.254;6.598;2022-09-17T15:54:29;13.30;99.90
51884;DHT22;37915;53.254;6.598;2022-09-17T15:56:59;13.10;99.90
51884;DHT22;37915;53.254;6.598;2022-09-17T15:59:31;12.80;99.90
51884;DHT22;37915;53.254;6.598;2022-09-17T16:02:00;12.70;99.90
51884;DHT22;37915;53.254;6.598;2022-09-17T16:09:44;12.60;99.90
51884;DHT22;37915;53.254;6.598;2022-09-17T16:12:22;12.60;99.90
51884;DHT22;37915;53.254;6.598;2022-09-17T16:14:59;12.60;99.90
51884;DHT22;37915;53.254;6.598;2022-09-17T16:17:47;12.70;99.90
51884;DHT22;37915;53.254;6.598;2022-09-17T16:20:24;12.70;99.90
51884;DHT22;37915;53.254;6.598;2022-09-17T16:22:51;12.70;99.90
51884;DHT22;37915;53.254;6.598;2022-09-17T16:25:21;12.80;99.90
51884;DHT22;37915;53.254;6.598;2022-09-17T16:27:51;12.90;99.90
51884;DHT22;37915;53.254;6.598;2022-09-17T16:30:20;12.90;99.90
51884;DHT22;37915;53.254;6.598;2022-09-17T16:32:46;12.90;99.90
51884;DHT22;37915;53.254;6.598;2022-09-17T16:35:18;13.00;99.90
51884;DHT22;37915;53.254;6.598;2022-09-17T16:37:48;13.00;99.90
51884;DHT22;37915;53.254;6.598;2022-09-17T16:40:14;12.90;99.90
51884;DHT22;37915;53.254;6.598;2022-09-17T16:42:40;12.90;99.90
51884;DHT22;37915;53.254;6.598;2022-09-17T16:45:07;12.90;99.90
51884;DHT22;37915;53.254;6.598;2022-09-17T16:47:37;12.90;99.90
51884;DHT22;37915;53.254;6.598;2022-09-17T16:50:05;12.80;99.90
51884;DHT22;37915;53.254;6.598;2022-09-17T16:52:32;12.80;99.90
51884;DHT22;37915;53.254;6.598;2022-09-17T16:54:58;12.80;99.90
51884;DHT22;37915;53.254;6.598;2022-09-17T16:57:24;12.70;99.90
51884;DHT22;37915;53.254;6.598;2022-09-17T16:59:49;12.70;99.90
51884;DHT22;37915;53.254;6.598;2022-09-17T17:02:15;12.60;99.90
51884;DHT22;37915;53.254;6.598;2022-09-17T17:04:41;12.60;99.90
51884;DHT22;37915;53.254;6.598;2022-09-17T17:07:06;12.60;99.90
51884;DHT22;37915;53.254;6.598;2022-09-17T17:09:32;12.60;99.90
51884;DHT22;37915;53.254;6.598;2022-09-17T17:11:58;12.50;99.90
51884;DHT22;37915;53.254;6.598;2022-09-17T17:14:23;12.50;99.90
51884;DHT22;37915;53.254;6.598;2022-09-17T17:16:49;12.50;99.90
51884;DHT22;37915;53.254;6.598;2022-09-17T17:19:14;12.50;99.90
51884;DHT22;37915;53.254;6.598;2022-09-17T17:21:40;12.40;99.90
51884;DHT22;37915;53.254;6.598;2022-09-17T17:24:06;12.40;99.90
51884;DHT22;37915;53.254;6.598;2022-09-17T17:26:32;12.40;99.90
51884;DHT22;37915;53.254;6.598;2022-09-17T17:28:58;12.40;99.90
51884;DHT22;37915;53.254;6.598;2022-09-17T17:31:24;12.30;99.90
51884;DHT22;37915;53.254;6.598;2022-09-17T17:33:50;12.30;99.90
51884;DHT22;37915;53.254;6.598;2022-09-17T17:36:15;12.30;99.90
51884;DHT22;37915;53.254;6.598;2022-09-17T17:38:41;12.20;99.90
51884;DHT22;37915;53.254;6.598;2022-09-17T17:41:12;12.20;99.90
51884;DHT22;37915;53.254;6.598;2022-09-17T17:43:39;12.10;99.90
51884;DHT22;37915;53.254;6.598;2022-09-17T17:46:07;12.00;99.90
51884;DHT22;37915;53.254;6.598;2022-09-17T17:48:34;12.00;99.90
51884;DHT22;37915;53.254;6.598;2022-09-17T17:51:05;12.00;99.90
51884;DHT22;37915;53.254;6.598;2022-09-17T17:53:30;12.00;99.90
51884;DHT22;37915;53.254;6.598;2022-09-17T17:55:58;12.00;99.90
51884;DHT22;37915;53.254;6.598;2022-09-17T17:58:24;11.90;99.90
51884;DHT22;37915;53.254;6.598;2022-09-17T18:00:50;11.90;99.90
51884;DHT22;37915;53.254;6.598;2022-09-17T18:03:16;11.90;99.90
51884;DHT22;37915;53.254;6.598;2022-09-17T18:05:42;11.90;99.90
51884;DHT22;37915;53.254;6.598;2022-09-17T18:08:10;11.90;99.90
51884;DHT22;37915;53.254;6.598;2022-09-17T18:10:35;11.90;99.90
51884;DHT22;37915;53.254;6.598;2022-09-17T18:13:01;11.80;99.90
51884;DHT22;37915;53.254;6.598;2022-09-17T18:15:27;11.80;99.90
51884;DHT22;37915;53.254;6.598;2022-09-17T18:17:52;11.70;99.90
51884;DHT22;37915;53.254;6.598;2022-09-17T18:20:18;11.70;99.90
51884;DHT22;37915;53.254;6.598;2022-09-17T18:22:47;11.70;99.90
51884;DHT22;37915;53.254;6.598;2022-09-17T18:25:13;11.70;99.90
51884;DHT22;37915;53.254;6.598;2022-09-17T18:27:38;11.60;99.90
51884;DHT22;37915;53.254;6.598;2022-09-17T18:30:04;11.60;99.90
51884;DHT22;37915;53.254;6.598;2022-09-17T18:32:30;11.70;99.90
51884;DHT22;37915;53.254;6.598;2022-09-17T18:34:56;11.70;99.90
51884;DHT22;37915;53.254;6.598;2022-09-17T18:37:21;11.80;99.90
51884;DHT22;37915;53.254;6.598;2022-09-17T18:39:47;11.60;99.90
51884;DHT22;37915;53.254;6.598;2022-09-17T18:42:13;11.60;99.90
51884;DHT22;37915;53.254;6.598;2022-09-17T18:44:39;11.60;99.90
51884;DHT22;37915;53.254;6.598;2022-09-17T18:47:05;11.60;99.90
51884;DHT22;37915;53.254;6.598;2022-09-17T18:49:30;11.60;99.90
51884;DHT22;37915;53.254;6.598;2022-09-17T18:51:56;11.60;99.90
51884;DHT22;37915;53.254;6.598;2022-09-17T18:54:22;11.60;99.90
51884;DHT22;37915;53.254;6.598;2022-09-17T18:56:48;11.50;99.90
51884;DHT22;37915;53.254;6.598;2022-09-17T18:59:14;11.50;99.90
51884;DHT22;37915;53.254;6.598;2022-09-17T19:01:39;11.60;99.90
51884;DHT22;37915;53.254;6.598;2022-09-17T19:04:05;11.70;99.90
51884;DHT22;37915;53.254;6.598;2022-09-17T19:06:34;11.60;99.90
51884;DHT22;37915;53.254;6.598;2022-09-17T19:09:01;11.60;99.90
51884;DHT22;37915;53.254;6.598;2022-09-17T19:11:27;11.60;99.90
51884;DHT22;37915;53.254;6.598;2022-09-17T19:13:53;11.70;99.90
51884;DHT22;37915;53.254;6.598;2022-09-17T19:16:19;11.70;99.90